Time;durP1;ratioP1;P1;durP2;ratioP2;P2;SDS_P1;SDS_P2;PMS_P1;PMS_P2;Temp;Humidity;BMP_temperature;BMP_pressure;BME280_temperature;BME280_humidity;BME280_pressure;Samples;Min_cycle;Max_cycle;Signal;HPM_P1;HPM_P2
2021/11/07 00:02:08;;;;;;;10.63;5.37;;;;;;;6.65;64.68;101181.09;1685444;82;21459;-64
2021/11/07 00:09:40;;;;;;;11.60;5.58;;;;;;;6.56;64.74;101168.40;1698251;83;21490;-64
2021/11/07 00:12:15;;;;;;;8.98;4.25;;;;;;;6.52;64.92;101168.36;1764127;81;21616;-64
2021/11/07 00:14:47;;;;;;;8.08;4.08;;;;;;;6.47;65.13;101160.61;1734336;83;21041;-64
2021/11/07 00:17:15;;;;;;;8.53;4.53;;;;;;;6.44;65.23;101173.17;1733506;83;21550;-65
2021/11/07 00:19:47;;;;;;;8.85;5.08;;;;;;;6.41;65.38;101169.39;1749353;82;21055;-64
2021/11/07 00:22:20;;;;;;;12.15;5.47;;;;;;;6.43;65.52;101167.88;1747198;82;21530;-64
2021/11/07 00:24:52;;;;;;;11.90;5.95;;;;;;;6.41;65.50;101162.58;1746996;82;21024;-64
2021/11/07 00:27:56;;;;;;;10.40;5.92;;;;;;;6.43;65.51;101168.73;1734530;82;21128;-64
2021/11/07 00:30:17;;;;;;;12.35;5.83;;;;;;;6.43;65.50;101159.70;1706588;82;21464;-65
2021/11/07 00:38:02;;;;;;;8.83;5.55;;;;;;;6.46;65.57;101139.84;1737673;82;21553;-64
2021/11/07 00:40:40;;;;;;;10.82;5.12;;;;;;;6.48;65.63;101133.74;1747800;82;21015;-63
2021/11/07 00:43:07;;;;;;;8.40;5.10;;;;;;;6.50;65.67;101141.28;1746395;82;21440;-64
2021/11/07 00:45:42;;;;;;;12.33;6.10;;;;;;;6.52;65.70;101135.69;1747714;82;21559;-64
2021/11/07 00:58:59;;;;;;;12.90;6.80;;;;;;;6.61;65.74;101129.31;1719302;83;21510;-64
2021/11/07 01:01:27;;;;;;;13.85;6.45;;;;;;;6.63;65.72;101123.21;1718973;83;21462;-62
2021/11/07 01:03:59;;;;;;;11.95;6.35;;;;;;;6.64;65.76;101120.33;1719183;83;21625;-68
2021/11/07 01:06:27;;;;;;;12.85;6.40;;;;;;;6.66;65.71;101119.67;1725180;82;21130;-64
2021/11/07 01:08:56;;;;;;;15.53;7.17;;;;;;;6.68;65.78;101119.02;1820603;79;21508;-65
2021/11/07 01:11:26;;;;;;;12.23;7.72;;;;;;;6.70;65.72;101112.05;1750782;81;21023;-64
2021/11/07 01:13:55;;;;;;;14.70;7.08;;;;;;;6.69;65.66;101111.70;1749318;82;21028;-64
2021/11/07 01:16:24;;;;;;;19.25;7.80;;;;;;;6.70;65.74;101116.13;1750974;82;21054;-64
2021/11/07 01:18:54;;;;;;;12.88;6.72;;;;;;;6.71;65.68;101110.18;1749049;82;21107;-64
2021/11/07 01:21:24;;;;;;;9.88;5.42;;;;;;;6.73;65.77;101110.38;1823375;79;21062;-64
2021/11/07 01:24:01;;;;;;;12.05;5.72;;;;;;;6.76;65.76;101110.06;1822812;79;21038;-64
2021/11/07 01:26:37;;;;;;;18.65;6.55;;;;;;;6.78;65.74;101109.91;1823070;79;21105;-63
2021/11/07 01:29:20;;;;;;;10.15;4.78;;;;;;;6.82;65.65;101103.99;1737604;82;21193;-64
2021/11/07 01:31:48;;;;;;;15.15;6.60;;;;;;;6.79;65.64;101093.91;1691747;85;21656;-64
2021/11/07 01:34:26;;;;;;;14.20;7.62;;;;;;;6.77;65.72;101089.98;1723479;83;21032;-65
2021/11/07 01:36:57;;;;;;;16.45;7.62;;;;;;;6.76;65.71;101092.87;1740418;81;21076;-63
2021/11/07 01:39:22;;;;;;;14.10;6.45;;;;;;;6.78;65.76;101093.56;1756165;81;21179;-65
2021/11/07 01:44:51;;;;;;;10.08;5.37;;;;;;;6.76;65.80;101093.72;1795446;80;21450;-63
2021/11/07 01:47:17;;;;;;;10.03;6.17;;;;;;;6.75;65.81;101085.20;1815902;79;21034;-64
2021/11/07 01:49:46;;;;;;;11.88;5.92;;;;;;;6.68;65.90;101075.95;1823328;79;21493;-67
2021/11/07 01:52:16;;;;;;;11.55;6.37;;;;;;;6.61;66.02;101081.16;1823271;79;21649;-64
2021/11/07 01:57:18;;;;;;;18.80;7.45;;;;;;;6.54;66.22;101080.07;1795579;80;21026;-64
2021/11/07 01:59:49;;;;;;;17.37;7.17;;;;;;;6.48;66.31;101077.94;1795680;80;21045;-64
2021/11/07 02:02:18;;;;;;;10.82;6.17;;;;;;;6.47;66.44;101084.89;1795577;80;21054;-64
2021/11/07 02:04:47;;;;;;;14.73;6.30;;;;;;;6.46;66.45;101090.84;1797363;79;21053;-63
2021/11/07 02:07:17;;;;;;;11.40;6.33;;;;;;;6.43;66.57;101090.30;1798616;80;21030;-65
2021/11/07 02:09:46;;;;;;;11.60;6.70;;;;;;;6.38;66.63;101086.67;1799127;80;21042;-65
2021/11/07 02:12:16;;;;;;;15.80;7.00;;;;;;;6.33;66.75;101083.56;1799276;80;21057;-63
2021/11/07 02:14:45;;;;;;;15.28;7.12;;;;;;;6.28;66.95;101088.61;1798976;80;21145;-63
2021/11/07 02:17:13;;;;;;;15.00;7.10;;;;;;;6.26;67.06;101083.82;1796938;80;20983;-64
2021/11/07 02:19:44;;;;;;;14.45;6.40;;;;;;;6.25;67.10;101078.03;1799266;80;21502;-63
2021/11/07 02:22:14;;;;;;;13.35;7.42;;;;;;;6.25;67.15;101087.05;1799147;80;21018;-63
2021/11/07 02:24:44;;;;;;;15.98;8.15;;;;;;;6.26;67.12;101091.48;1798988;80;21059;-63
2021/11/07 02:27:14;;;;;;;16.05;7.95;;;;;;;6.18;67.18;101087.81;1794429;78;21439;-63
2021/11/07 02:29:44;;;;;;;11.85;6.28;;;;;;;6.11;67.38;101087.56;1746896;81;21447;-63
2021/11/07 02:32:13;;;;;;;12.40;6.65;;;;;;;6.10;67.46;101089.93;1746703;82;21482;-64
2021/11/07 02:34:41;;;;;;;19.77;7.30;;;;;;;6.09;67.42;101081.92;1746962;82;21498;-70
2021/11/07 02:37:11;;;;;;;18.05;7.53;;;;;;;6.09;67.48;101091.44;1741330;81;21065;-63
2021/11/07 02:39:40;;;;;;;10.38;6.20;;;;;;;6.10;67.44;101085.00;1725740;83;21143;-64
2021/11/07 02:42:10;;;;;;;11.78;6.42;;;;;;;6.03;67.58;101080.67;1725711;83;21028;-64
2021/11/07 02:44:45;;;;;;;11.85;6.20;;;;;;;5.96;67.78;101071.40;1725802;83;21036;-65
2021/11/07 02:47:16;;;;;;;16.07;6.80;;;;;;;5.94;67.97;101078.35;1778660;80;21055;-63
2021/11/07 02:49:45;;;;;;;14.38;6.58;;;;;;;5.98;67.96;101071.60;1761655;80;21064;-65
2021/11/07 02:52:14;;;;;;;13.30;6.75;;;;;;;5.99;67.94;101064.30;1786610;80;21106;-64
2021/11/07 02:54:43;;;;;;;9.95;5.75;;;;;;;6.02;67.94;101069.43;1761886;81;21079;-63
2021/11/07 02:57:16;;;;;;;16.48;7.40;;;;;;;6.04;67.87;101059.26;1761970;80;21073;-63
2021/11/07 02:59:49;;;;;;;13.20;6.00;;;;;;;6.01;67.91;101059.56;1755949;81;21858;-64
2021/11/07 03:02:19;;;;;;;13.03;6.42;;;;;;;5.99;68.08;101056.99;1755832;82;21500;-63
2021/11/07 03:04:48;;;;;;;9.83;5.42;;;;;;;6.00;68.12;101065.50;1755719;82;21488;-63
2021/11/07 03:07:17;;;;;;;10.28;6.22;;;;;;;5.99;68.08;101060.22;1750561;81;21018;-64
2021/11/07 03:09:47;;;;;;;9.65;5.78;;;;;;;5.96;68.11;101073.62;1751874;82;21073;-62
2021/11/07 03:12:17;;;;;;;10.95;6.50;;;;;;;5.93;68.18;101071.70;1752031;82;21037;-66
2021/11/07 03:14:51;;;;;;;13.88;6.33;;;;;;;5.90;68.23;101076.09;1752122;82;21406;-63
2021/11/07 03:17:25;;;;;;;12.73;5.85;;;;;;;5.94;68.27;101077.50;1658492;85;21506;-63
2021/11/07 03:19:54;;;;;;;13.68;7.30;;;;;;;5.94;68.22;101076.14;1646010;87;21286;-64
2021/11/07 03:22:27;;;;;;;13.30;7.70;;;;;;;5.91;68.24;101073.22;1646049;87;21625;-66
2021/11/07 03:24:56;;;;;;;32.45;9.33;;;;;;;5.88;68.32;101084.87;1646209;87;21499;-65
2021/11/07 03:27:43;;;;;;;16.30;9.63;;;;;;;5.86;68.42;101075.50;1645935;87;21106;-63
2021/11/07 03:30:28;;;;;;;13.08;6.80;;;;;;;5.89;68.35;101077.95;1632736;88;21046;-64
2021/11/07 03:32:51;;;;;;;11.68;6.25;;;;;;;5.84;68.30;101087.50;1631702;87;21084;-65
2021/11/07 03:35:21;;;;;;;13.15;6.97;;;;;;;5.78;68.32;101088.96;1672149;83;21041;-62
2021/11/07 03:37:57;;;;;;;17.10;7.90;;;;;;;5.72;68.45;101083.62;1722188;83;20990;-65
2021/11/07 03:40:26;;;;;;;14.60;7.40;;;;;;;5.69;68.51;101080.34;1732906;81;21066;-64
2021/11/07 03:42:57;;;;;;;11.22;7.12;;;;;;;5.65;68.62;101077.56;1731121;81;21058;-63
2021/11/07 03:45:27;;;;;;;14.70;6.70;;;;;;;5.62;68.69;101076.51;1733741;81;21195;-64
2021/11/07 03:47:59;;;;;;;12.90;7.05;;;;;;;5.60;68.74;101073.08;1761347;80;21450;-64
2021/11/07 03:50:28;;;;;;;13.25;7.25;;;;;;;5.57;68.71;101072.02;1761238;81;21073;-63
2021/11/07 03:52:57;;;;;;;13.22;6.50;;;;;;;5.53;68.82;101076.05;1761075;81;21136;-64
2021/11/07 03:55:26;;;;;;;14.90;7.05;;;;;;;5.45;68.97;101069.98;1761196;81;21027;-64
2021/11/07 03:57:55;;;;;;;10.78;6.22;;;;;;;5.37;69.17;101071.23;1759291;80;21635;-64
2021/11/07 04:00:24;;;;;;;14.78;6.80;;;;;;;5.32;69.34;101064.88;1761074;81;21948;-63
2021/11/07 04:02:54;;;;;;;14.65;7.30;;;;;;;5.29;69.51;101066.53;1761182;81;21050;-66
2021/11/07 04:05:24;;;;;;;13.28;6.45;;;;;;;5.29;69.59;101065.18;1761213;81;21046;-63
2021/11/07 04:07:52;;;;;;;13.75;8.05;;;;;;;5.34;69.62;101059.30;1758866;81;21494;-64
2021/11/07 04:10:22;;;;;;;16.52;8.05;;;;;;;5.38;69.62;101054.78;1761046;81;21078;-63
2021/11/07 04:12:51;;;;;;;15.25;7.28;;;;;;;5.43;69.54;101066.56;1761049;81;21102;-64
2021/11/07 04:15:20;;;;;;;13.22;8.03;;;;;;;5.43;69.58;101059.77;1761399;81;21061;-65
2021/11/07 04:17:49;;;;;;;14.30;8.00;;;;;;;5.40;69.65;101062.78;1747551;81;21045;-64
2021/11/07 04:20:18;;;;;;;17.37;7.70;;;;;;;5.41;69.66;101050.91;1724942;82;21018;-65
2021/11/07 04:22:47;;;;;;;13.95;7.67;;;;;;;5.41;69.63;101051.77;1725339;82;21022;-65
2021/11/07 04:25:16;;;;;;;14.90;7.12;;;;;;;5.40;69.64;101045.12;1724935;82;21554;-64
2021/11/07 04:27:45;;;;;;;15.58;8.08;;;;;;;5.40;69.69;101051.91;1726157;81;21474;-64
2021/11/07 04:30:14;;;;;;;13.68;7.53;;;;;;;5.41;69.70;101050.41;1761500;81;21531;-64
2021/11/07 04:32:43;;;;;;;18.12;9.25;;;;;;;5.43;69.73;101043.97;1761826;81;21541;-64
2021/11/07 04:35:12;;;;;;;25.82;9.13;;;;;;;5.43;69.74;101052.12;1761636;80;21521;-64
2021/11/07 04:37:43;;;;;;;21.25;8.98;;;;;;;5.45;69.70;101050.11;1743902;81;21414;-64
2021/11/07 04:40:14;;;;;;;19.52;8.70;;;;;;;5.46;69.72;101049.96;1731287;83;21595;-63
2021/11/07 04:42:45;;;;;;;15.70;8.25;;;;;;;5.50;69.66;101046.44;1730916;83;21018;-62
2021/11/07 04:45:14;;;;;;;18.48;8.90;;;;;;;5.52;69.64;101042.57;1730917;83;21034;-64
2021/11/07 04:47:43;;;;;;;19.90;8.25;;;;;;;5.55;69.62;101045.48;1732914;81;21002;-62
2021/11/07 04:50:14;;;;;;;18.17;8.45;;;;;;;5.57;69.47;101058.43;1731001;83;21431;-64
2021/11/07 04:52:42;;;;;;;16.15;7.80;;;;;;;5.56;69.44;101059.44;1731099;83;21537;-63
2021/11/07 04:55:11;;;;;;;21.30;9.50;;;;;;;5.55;69.39;101058.58;1731072;83;21074;-63
2021/11/07 04:57:43;;;;;;;17.45;8.95;;;;;;;5.49;69.31;101056.95;1734000;81;21699;-65
2021/11/07 05:00:18;;;;;;;17.80;7.75;;;;;;;5.44;69.38;101051.11;1758989;81;21474;-64
2021/11/07 05:02:51;;;;;;;17.02;8.45;;;;;;;5.36;69.54;101054.07;1760967;81;21023;-64
2021/11/07 05:05:21;;;;;;;19.92;8.68;;;;;;;5.32;69.73;101057.23;1761439;81;21454;-64
2021/11/07 05:07:51;;;;;;;17.92;7.87;;;;;;;5.33;69.81;101057.08;1761031;80;21675;-64
2021/11/07 05:10:21;;;;;;;12.40;6.80;;;;;;;5.37;69.81;101067.16;1726271;81;21069;-64
2021/11/07 05:12:51;;;;;;;14.33;7.50;;;;;;;5.41;69.70;101077.58;1724930;83;21022;-64
2021/11/07 05:15:20;;;;;;;14.80;7.90;;;;;;;5.37;69.67;101080.23;1725294;82;21024;-63
2021/11/07 05:17:50;;;;;;;13.22;7.92;;;;;;;5.38;69.66;101080.59;1725201;82;21030;-64
2021/11/07 05:20:19;;;;;;;17.82;10.13;;;;;;;5.38;69.67;101076.52;1731219;81;21097;-65
2021/11/07 05:22:48;;;;;;;22.80;9.43;;;;;;;5.38;69.66;101071.59;1731067;83;21082;-64
2021/11/07 05:25:17;;;;;;;22.48;9.88;;;;;;;5.37;69.68;101074.80;1731147;81;21038;-64
2021/11/07 05:27:46;;;;;;;24.18;9.90;;;;;;;5.35;69.69;101079.53;1731420;81;21116;-64
2021/11/07 05:30:16;;;;;;;21.80;9.93;;;;;;;5.37;69.71;101083.46;1730785;83;21030;-64
2021/11/07 05:32:45;;;;;;;28.12;11.43;;;;;;;5.39;69.67;101090.47;1731018;81;21615;-64
2021/11/07 05:35:18;;;;;;;23.15;11.12;;;;;;;5.37;69.64;101093.83;1731256;83;21466;-64
2021/11/07 05:37:48;;;;;;;18.82;9.55;;;;;;;5.33;69.75;101095.13;1731731;81;21485;-64
2021/11/07 05:40:18;;;;;;;18.42;9.00;;;;;;;5.32;69.76;101086.62;1760372;81;21014;-64
2021/11/07 05:42:48;;;;;;;14.73;8.15;;;;;;;5.31;69.85;101088.13;1761086;80;21152;-64
2021/11/07 05:45:17;;;;;;;17.30;7.87;;;;;;;5.31;69.86;101083.55;1761057;81;21499;-64
2021/11/07 05:47:48;;;;;;;20.10;9.38;;;;;;;5.32;69.81;101081.19;1761156;81;21022;-64
2021/11/07 05:50:17;;;;;;;16.07;8.45;;;;;;;5.30;69.81;101073.69;1733440;81;21228;-63
2021/11/07 05:52:45;;;;;;;19.05;8.50;;;;;;;5.28;69.92;101075.69;1724974;82;21030;-63
2021/11/07 05:55:14;;;;;;;16.80;8.98;;;;;;;5.33;69.99;101071.17;1725107;83;21559;-64
2021/11/07 05:57:43;;;;;;;14.30;8.23;;;;;;;5.38;69.94;101067.01;1758979;81;20995;-64
2021/11/07 06:00:14;;;;;;;17.90;9.08;;;;;;;5.41;69.82;101068.07;1761119;81;21462;-65
2021/11/07 06:02:43;;;;;;;20.15;8.23;;;;;;;5.43;69.85;101061.13;1761171;81;21082;-64
2021/11/07 06:05:14;;;;;;;15.63;7.90;;;;;;;5.46;69.74;101053.18;1761181;80;21120;-64
2021/11/07 06:07:43;;;;;;;16.80;7.78;;;;;;;5.51;69.65;101065.82;1758998;81;21474;-65
2021/11/07 06:10:12;;;;;;;12.13;7.53;;;;;;;5.55;69.54;101071.31;1761297;80;21054;-63
2021/11/07 06:12:42;;;;;;;18.23;8.13;;;;;;;5.54;69.45;101071.81;1761480;81;21540;-64
2021/11/07 06:15:13;;;;;;;13.25;7.85;;;;;;;5.57;69.40;101070.66;1761290;81;21442;-64
2021/11/07 06:17:42;;;;;;;15.28;7.40;;;;;;;5.57;69.33;101066.59;1759450;81;21452;-64
2021/11/07 06:20:13;;;;;;;16.37;7.67;;;;;;;5.59;69.39;101068.65;1761402;80;21074;-67
2021/11/07 06:22:42;;;;;;;13.98;7.25;;;;;;;5.63;69.26;101068.70;1761631;81;21500;-65
2021/11/07 06:25:11;;;;;;;13.55;7.58;;;;;;;5.65;69.02;101072.98;1760761;81;21516;-65
2021/11/07 06:27:41;;;;;;;20.68;9.50;;;;;;;5.64;69.00;101064.98;1731168;81;21141;-64
2021/11/07 06:30:12;;;;;;;17.87;9.55;;;;;;;5.63;68.95;101075.00;1731260;83;21062;-65
2021/11/07 06:32:40;;;;;;;23.12;12.63;;;;;;;5.62;69.01;101071.92;1731230;83;21041;-65
2021/11/07 06:35:11;;;;;;;20.48;10.63;;;;;;;5.64;68.98;101067.20;1731380;83;21030;-63
2021/11/07 06:37:41;;;;;;;19.20;10.08;;;;;;;5.67;68.95;101061.96;1726614;81;21461;-63
2021/11/07 06:40:12;;;;;;;19.65;10.65;;;;;;;5.67;68.86;101060.09;1724993;83;21043;-64
2021/11/07 06:42:41;;;;;;;17.87;9.48;;;;;;;5.67;68.88;101068.76;1724946;83;21471;-64
2021/11/07 06:45:11;;;;;;;17.70;9.65;;;;;;;5.70;68.88;101068.46;1724931;83;21122;-64
2021/11/07 06:47:41;;;;;;;15.10;9.08;;;;;;;5.70;68.85;101076.62;1758905;80;21047;-64
2021/11/07 06:50:11;;;;;;;19.00;8.35;;;;;;;5.68;68.91;101070.47;1751159;82;21056;-64
2021/11/07 06:52:41;;;;;;;19.12;8.95;;;;;;;5.74;68.87;101076.67;1751255;82;21066;-64
2021/11/07 06:55:10;;;;;;;13.18;6.92;;;;;;;5.78;68.80;101071.78;1749654;81;21114;-64
2021/11/07 06:57:38;;;;;;;15.15;7.37;;;;;;;5.84;68.72;101079.34;1742952;82;21066;-64
2021/11/07 07:00:15;;;;;;;15.38;7.40;;;;;;;5.88;68.53;101078.06;1751243;82;21474;-65
2021/11/07 07:02:43;;;;;;;14.58;7.33;;;;;;;5.91;68.37;101064.20;1751218;81;21152;-65
2021/11/07 07:05:13;;;;;;;17.42;7.78;;;;;;;5.94;68.12;101050.30;1751314;82;21588;-64
2021/11/07 07:07:46;;;;;;;14.70;7.10;;;;;;;5.93;68.13;101052.16;1750948;82;21051;-64
2021/11/07 07:10:23;;;;;;;14.58;8.63;;;;;;;5.99;68.20;101049.34;1772941;81;21016;-64
2021/11/07 07:12:52;;;;;;;16.80;8.28;;;;;;;6.03;68.11;101039.36;1750271;81;21068;-65
2021/11/07 07:15:21;;;;;;;15.43;9.58;;;;;;;6.08;67.98;101024.44;1822535;79;21030;-65
2021/11/07 07:20:28;;;;;;;15.58;8.63;;;;;;;6.12;67.86;101017.17;1772687;81;21031;-63
2021/11/07 07:31:12;;;;;;;18.48;7.33;;;;;;;6.86;67.73;100995.06;1764750;81;21129;-65
2021/11/07 07:33:45;;;;;;;15.13;7.12;;;;;;;7.48;66.45;101004.50;1760381;81;21050;-66
2021/11/07 07:36:09;;;;;;;14.00;7.20;;;;;;;8.06;65.33;100996.39;1821246;79;21035;-63
2021/11/07 07:38:38;;;;;;;14.13;7.00;;;;;;;8.65;63.95;100990.38;1823144;79;21458;-65
2021/11/07 07:41:06;;;;;;;13.70;6.85;;;;;;;9.23;62.52;100985.72;1750907;81;21094;-64
2021/11/07 07:43:38;;;;;;;14.73;7.55;;;;;;;9.68;60.31;100983.69;1749565;82;21067;-68
2021/11/07 07:46:12;;;;;;;14.15;6.95;;;;;;;10.05;58.95;100983.02;1818911;79;21485;-65
2021/11/07 07:48:46;;;;;;;10.72;6.03;;;;;;;10.37;56.95;100978.72;1822517;79;21443;-64
2021/11/07 07:51:14;;;;;;;10.82;6.42;;;;;;;10.64;56.12;100980.08;1822933;79;21484;-64
2021/11/07 07:53:43;;;;;;;14.15;7.28;;;;;;;10.86;55.48;100979.72;1823109;79;21023;-65
2021/11/07 07:56:13;;;;;;;13.10;6.53;;;;;;;11.13;54.93;100983.77;1749213;81;21161;-65
2021/11/07 07:58:42;;;;;;;13.05;6.85;;;;;;;11.38;54.42;100982.98;1749364;82;21067;-63
2021/11/07 08:01:11;;;;;;;12.33;6.45;;;;;;;11.49;53.15;100989.37;1823198;79;21019;-64
2021/11/07 08:03:41;;;;;;;12.10;5.87;;;;;;;11.42;52.52;100990.65;1738414;81;21070;-64
2021/11/07 08:06:10;;;;;;;10.68;6.33;;;;;;;11.36;52.82;100994.15;1691774;85;21499;-65
2021/11/07 08:08:39;;;;;;;14.83;7.03;;;;;;;11.37;52.44;100990.88;1691480;85;21102;-64
2021/11/07 08:11:08;;;;;;;13.15;7.28;;;;;;;11.33;52.63;100988.19;1691559;85;21055;-67
2021/11/07 08:13:37;;;;;;;16.17;7.75;;;;;;;11.29;52.54;100978.63;1705654;82;21486;-63
2021/11/07 08:16:06;;;;;;;14.40;6.62;;;;;;;11.26;52.76;100976.27;1772657;81;21184;-68
2021/11/07 08:18:36;;;;;;;11.93;7.17;;;;;;;11.20;53.05;100970.16;1823133;78;21505;-63
2021/11/07 08:21:05;;;;;;;15.55;7.17;;;;;;;11.14;52.95;100967.64;1751008;82;21527;-65
2021/11/07 08:23:34;;;;;;;13.65;7.87;;;;;;;10.98;52.84;100969.15;1748756;82;21023;-64
2021/11/07 08:26:05;;;;;;;14.25;7.80;;;;;;;10.76;53.44;100958.05;1751172;82;21458;-70
2021/11/07 08:28:36;;;;;;;14.80;7.40;;;;;;;10.61;53.98;100953.05;1751104;81;21531;-65
2021/11/07 08:31:07;;;;;;;11.05;5.87;;;;;;;10.50;54.14;100958.96;1823284;79;21164;-63
2021/11/07 08:33:37;;;;;;;11.50;6.10;;;;;;;10.32;54.75;100957.88;1736757;82;21065;-64
2021/11/07 08:36:11;;;;;;;11.60;6.42;;;;;;;10.23;55.26;100957.59;1795576;80;21535;-66
2021/11/07 08:38:45;;;;;;;12.20;6.60;;;;;;;10.16;55.34;100946.48;1795595;80;21538;-69
2021/11/07 08:41:10;;;;;;;15.13;6.62;;;;;;;10.03;55.70;100944.02;1794875;80;21018;-64
2021/11/07 09:05:48;;;;;;;12.53;5.58;;;;;;;9.76;57.38;100918.86;1795864;80;21418;-63
2021/11/07 09:10:36;;;;;;;12.35;6.28;;;;;;;9.78;57.63;100903.10;1798260;79;21484;-63
2021/11/07 09:13:06;;;;;;;12.65;6.78;;;;;;;9.80;57.46;100899.67;1795957;79;21505;-66
2021/11/07 09:15:38;;;;;;;15.15;7.10;;;;;;;9.82;57.30;100902.23;1786807;79;21089;-64
2021/11/07 09:18:08;;;;;;;14.23;6.60;;;;;;;9.80;57.28;100894.72;1658426;86;21044;-63
2021/11/07 09:20:56;;;;;;;12.93;6.55;;;;;;;9.79;57.29;100881.55;1658945;85;21213;-65
2021/11/07 09:23:22;;;;;;;13.43;6.05;;;;;;;9.80;57.35;100878.30;1662593;86;21074;-62
2021/11/07 09:28:25;;;;;;;14.07;7.33;;;;;;;9.84;57.63;100883.74;1690735;83;21664;-63
2021/11/07 09:33:48;;;;;;;12.25;6.65;;;;;;;9.90;57.54;100884.38;1684696;85;21554;-63
2021/11/07 09:36:25;;;;;;;10.88;5.70;;;;;;;9.95;57.47;100879.22;1683698;85;21079;-64
2021/11/07 09:39:07;;;;;;;14.18;7.28;;;;;;;9.97;57.24;100874.93;1684969;85;21446;-64
2021/11/07 09:44:12;;;;;;;;;;;;;;;9.98;57.10;100857.47;1757658;80;21220;-62
2021/11/07 09:46:43;;;;;;;11.05;5.28;;;;;;;9.98;57.03;100849.25;1784974;80;20218;-64
2021/11/07 09:49:18;;;;;;;12.25;6.17;;;;;;;9.98;57.14;100847.37;1798480;79;21061;-62
2021/11/07 09:51:57;;;;;;;10.63;6.00;;;;;;;10.00;57.23;100832.98;1727575;82;21050;-63
2021/11/07 09:54:27;;;;;;;10.85;6.33;;;;;;;10.02;57.13;100821.84;1787883;80;21969;-62
2021/11/07 09:56:58;;;;;;;10.55;5.72;;;;;;;10.03;57.38;100805.75;1724191;82;21502;-62
2021/11/07 09:59:29;;;;;;;10.38;5.67;;;;;;;10.04;57.32;100804.20;1765102;80;21073;-62
2021/11/07 10:02:00;;;;;;;8.85;5.78;;;;;;;10.08;57.21;100801.94;1741611;82;21051;-63
2021/11/07 10:04:36;;;;;;;12.90;5.65;;;;;;;10.15;57.13;100798.80;1788628;80;21532;-64
2021/11/07 10:07:22;;;;;;;9.98;5.10;;;;;;;10.17;56.86;100794.84;1775976;80;21474;-61
2021/11/07 10:09:57;;;;;;;11.38;6.17;;;;;;;10.20;56.87;100784.06;1773178;80;21206;-64
2021/11/07 10:12:39;;;;;;;8.93;4.92;;;;;;;10.21;56.63;100777.55;1781198;79;21059;-61
2021/11/07 10:15:11;;;;;;;10.30;4.97;;;;;;;10.21;56.47;100782.17;1780331;80;21050;-65
2021/11/07 10:17:47;;;;;;;9.05;5.17;;;;;;;10.20;56.46;100794.13;1786515;80;21093;-66
2021/11/07 10:20:32;;;;;;;8.85;5.25;;;;;;;10.23;56.47;100792.42;1702188;83;21702;-63
2021/11/07 10:23:11;;;;;;;9.93;5.60;;;;;;;10.25;56.28;100791.20;1700854;83;21475;-63
2021/11/07 10:25:53;;;;;;;10.18;5.08;;;;;;;10.28;56.28;100792.72;1711080;83;21430;-64
2021/11/07 10:28:27;;;;;;;11.63;5.12;;;;;;;10.29;56.14;100793.90;1701470;82;21606;-63
2021/11/07 10:31:18;;;;;;;9.03;4.97;;;;;;;10.31;55.63;100793.72;1735075;81;21027;-62
2021/11/07 10:34:09;;;;;;;9.10;5.08;;;;;;;10.32;55.52;100784.46;1748964;82;21037;-62
2021/11/07 10:42:13;;;;;;;9.83;5.47;;;;;;;10.34;54.87;100765.43;1625802;83;21043;-62
2021/11/07 10:47:32;;;;;;;8.95;5.05;;;;;;;10.37;54.99;100776.53;1720012;83;21203;-63
2021/11/07 10:52:49;;;;;;;10.58;5.80;;;;;;;10.44;55.64;100770.15;1719947;83;21027;-63
2021/11/07 10:55:26;;;;;;;10.88;6.72;;;;;;;10.50;54.52;100764.95;1742831;82;21074;-64
2021/11/07 10:57:59;;;;;;;8.18;5.20;;;;;;;10.55;54.88;100757.02;1749650;82;21398;-64
2021/11/07 11:00:44;;;;;;;11.10;5.78;;;;;;;10.57;53.93;100736.61;1741541;82;21060;-64
2021/11/07 11:03:18;;;;;;;8.48;4.90;;;;;;;10.56;53.88;100729.43;1720041;83;20995;-65
2021/11/07 11:06:04;;;;;;;8.73;4.97;;;;;;;10.57;53.08;100728.91;1720104;83;21023;-64
2021/11/07 11:08:34;;;;;;;8.58;5.25;;;;;;;10.57;52.91;100720.69;1720556;83;21043;-63
2021/11/07 11:11:10;;;;;;;6.80;4.15;;;;;;;10.57;52.76;100718.80;1776895;79;21479;-64
2021/11/07 11:16:41;;;;;;;8.88;5.33;;;;;;;10.59;52.74;100728.20;1755911;81;21010;-61
2021/11/07 11:22:22;;;;;;;10.63;5.35;;;;;;;10.63;53.10;100735.85;1733460;81;21426;-66
2021/11/07 11:38:06;;;;;;;10.10;5.17;;;;;;;10.59;53.54;100680.25;1790184;80;21073;-64
2021/11/07 11:40:47;;;;;;;12.65;5.62;;;;;;;10.56;53.72;100680.11;1793309;80;21133;-62
2021/11/07 11:43:14;;;;;;;10.38;5.83;;;;;;;10.55;54.06;100677.56;1711094;82;21952;-63
2021/11/07 11:45:45;;;;;;;11.75;5.60;;;;;;;10.56;54.12;100673.27;1743541;82;21086;-63
2021/11/07 11:48:57;;;;;;;9.08;5.47;;;;;;;10.57;53.86;100664.00;1737015;82;21004;-63
2021/11/07 12:00:24;;;;;;;16.20;7.42;;;;;;;10.60;54.42;100660.03;1719193;81;21041;-64
2021/11/07 12:05:39;;;;;;;11.20;6.50;;;;;;;10.65;54.16;100664.41;1795435;80;21026;-63
2021/11/07 12:08:29;;;;;;;13.28;6.78;;;;;;;10.63;54.20;100647.31;1738013;81;21051;-65
2021/11/07 12:14:21;;;;;;;13.32;6.12;;;;;;;10.66;54.40;100663.38;1791453;80;20987;-63
2021/11/07 12:17:03;;;;;;;10.85;6.10;;;;;;;10.67;54.36;100647.26;1779299;80;21194;-61
2021/11/07 12:19:43;;;;;;;9.38;5.72;;;;;;;10.67;54.33;100641.78;1727340;82;21077;-64
2021/11/07 12:22:15;;;;;;;9.93;5.03;;;;;;;10.66;54.34;100639.56;1794158;79;21015;-67
2021/11/07 12:24:57;;;;;;;9.98;5.92;;;;;;;10.67;54.43;100637.67;1764204;80;21019;-61
2021/11/07 12:27:52;;;;;;;12.33;6.10;;;;;;;10.67;54.34;100634.41;1790482;80;21082;-64
2021/11/07 12:30:28;;;;;;;11.18;5.92;;;;;;;10.65;54.44;100617.31;1790111;80;21043;-63
2021/11/07 12:33:11;;;;;;;8.93;5.62;;;;;;;10.64;54.99;100618.34;1726680;82;21023;-63
2021/11/07 12:36:23;;;;;;;9.80;5.97;;;;;;;10.62;54.65;100620.95;1715290;83;21462;-63
2021/11/07 12:41:24;;;;;;;10.65;5.95;;;;;;;10.57;54.83;100599.61;1751556;80;21573;-63
2021/11/07 12:44:00;;;;;;;12.30;5.65;;;;;;;10.56;55.03;100600.66;1751351;80;21072;-63
2021/11/07 12:46:55;;;;;;;10.85;6.00;;;;;;;10.55;55.38;100601.70;1738598;82;21489;-63
2021/11/07 12:49:23;;;;;;;10.98;5.75;;;;;;;10.53;55.86;100605.15;1789670;80;21514;-65
2021/11/07 12:52:08;;;;;;;14.35;6.10;;;;;;;10.51;56.04;100594.05;1806684;79;21062;-63
2021/11/07 12:54:40;;;;;;;11.22;6.45;;;;;;;10.48;56.03;100587.92;1750721;82;21492;-64
2021/11/07 12:57:20;;;;;;;11.10;6.33;;;;;;;10.45;55.97;100586.94;1748959;82;21497;-64
2021/11/07 12:59:58;;;;;;;12.85;6.53;;;;;;;10.44;56.09;100589.34;1750940;82;21446;-62
2021/11/07 13:02:31;;;;;;;9.90;5.47;;;;;;;10.46;56.21;100591.89;1749022;81;21092;-62
2021/11/07 13:05:27;;;;;;;9.63;5.78;;;;;;;10.47;55.96;100594.44;1809969;79;21018;-62
2021/11/07 13:07:58;;;;;;;9.18;5.47;;;;;;;10.47;55.96;100590.33;1791187;80;21034;-65
2021/11/07 13:13:30;;;;;;;11.35;5.83;;;;;;;10.44;55.36;100587.98;1786803;78;21117;-63
2021/11/07 13:18:58;;;;;;;10.43;6.17;;;;;;;10.39;55.35;100577.23;1730180;82;21136;-64
2021/11/07 13:27:27;;;;;;;13.03;6.45;;;;;;;10.31;56.16;100574.09;1742607;81;21616;-64
2021/11/07 13:30:00;;;;;;;12.63;5.85;;;;;;;10.24;56.49;100574.53;1750853;80;20966;-64
2021/11/07 13:32:30;;;;;;;10.58;6.08;;;;;;;10.19;56.73;100563.27;1747967;80;21536;-63
2021/11/07 13:35:11;;;;;;;10.48;6.30;;;;;;;10.17;56.91;100555.77;1727947;83;21024;-64
2021/11/07 13:37:57;;;;;;;13.40;6.72;;;;;;;10.16;57.03;100554.06;1717024;81;21699;-63
2021/11/07 13:40:35;;;;;;;15.28;7.60;;;;;;;10.12;57.30;100550.86;1742788;80;21059;-62
2021/11/07 13:43:13;;;;;;;16.02;6.55;;;;;;;10.09;57.42;100546.28;1727246;83;21447;-65
2021/11/07 13:45:42;;;;;;;;;;;;;;;10.07;57.63;100538.78;1737703;81;21027;-64
2021/11/07 13:48:24;;;;;;;13.60;6.20;;;;;;;10.04;57.87;100530.95;1742242;82;20517;-63
2021/11/07 13:50:53;;;;;;;15.93;8.03;;;;;;;10.01;58.08;100525.86;1733495;80;21143;-63
2021/11/07 13:53:30;;;;;;;15.75;7.75;;;;;;;9.98;58.42;100518.87;1730219;81;21451;-64
2021/11/07 13:56:02;;;;;;;15.72;7.92;;;;;;;9.96;58.66;100514.64;1743813;81;21058;-63
2021/11/07 13:58:33;;;;;;;12.20;6.83;;;;;;;9.93;58.77;100507.66;1747158;81;21065;-66